createdAt,value
2023-02-22T00:01:51.366Z,3.70
2023-02-22T00:04:21.568Z,3.70
2023-02-22T00:06:51.044Z,4.60
2023-02-22T00:09:21.692Z,3.40
2023-02-22T00:11:50.468Z,7.90
2023-02-22T00:14:21.615Z,4.40
2023-02-22T00:16:51.022Z,6.20
2023-02-22T00:19:19.301Z,4.10
2023-02-22T00:21:53.620Z,4.40
2023-02-22T00:24:24.582Z,5.20
2023-02-22T00:26:58.385Z,4.50
2023-02-22T00:29:27.156Z,5.20
2023-02-22T00:31:55.662Z,6.60
2023-02-22T00:34:24.545Z,4.80
2023-02-22T00:36:53.035Z,5.50
2023-02-22T00:39:21.520Z,5.50
2023-02-22T00:41:50.452Z,7.30
2023-02-22T00:44:20.513Z,6.30
2023-02-22T00:46:49.945Z,5.70
2023-02-22T00:49:18.303Z,5.50
2023-02-22T00:51:46.679Z,5.60
2023-02-22T00:54:20.284Z,5.20
2023-02-22T00:56:50.825Z,5.20
2023-02-22T00:59:19.473Z,5.40
2023-02-22T01:01:47.877Z,7.70
2023-02-22T01:04:18.610Z,6.10
2023-02-22T01:09:18.035Z,5.60
2023-02-22T01:11:46.415Z,6.10
2023-02-22T01:14:15.001Z,6.30
2023-02-22T01:16:44.661Z,5.80
2023-02-22T01:19:16.471Z,5.40
2023-02-22T01:21:44.747Z,6.10
2023-02-22T01:24:16.515Z,7.40
2023-02-22T01:26:52.395Z,5.20
2023-02-22T01:29:21.461Z,6.20
2023-02-22T01:31:55.519Z,7.80
2023-02-22T01:34:24.570Z,6.90
2023-02-22T01:36:53.773Z,7.10
2023-02-22T01:39:22.150Z,7.40
2023-02-22T01:41:50.748Z,6.40
2023-02-22T01:44:32.936Z,6.10
2023-02-22T01:47:02.851Z,5.70
2023-02-22T01:49:52.224Z,6.60
2023-02-22T01:52:21.015Z,4.80
2023-02-22T01:54:52.979Z,6.60
2023-02-22T01:57:25.658Z,5.40
2023-02-22T01:59:59.161Z,6.30
2023-02-22T02:02:27.743Z,5.30
2023-02-22T02:04:56.762Z,6.20
2023-02-22T02:07:29.927Z,6.50
2023-02-22T02:09:59.862Z,7.30
2023-02-22T02:12:30.074Z,6.30
2023-02-22T02:15:21.391Z,6.00
2023-02-22T02:17:50.590Z,6.40
2023-02-22T02:20:37.607Z,5.50
2023-02-22T02:23:24.626Z,6.00
2023-02-22T02:26:31.507Z,5.90
2023-02-22T02:29:21.393Z,7.30
2023-02-22T02:32:08.302Z,6.00
2023-02-22T02:35:01.576Z,5.70
2023-02-22T02:37:49.309Z,5.70
2023-02-22T02:40:32.361Z,7.20
2023-02-22T02:43:26.610Z,6.80
2023-02-22T02:45:59.295Z,5.00
2023-02-22T02:48:28.583Z,5.90
2023-02-22T02:53:36.624Z,5.60
2023-02-22T02:56:06.231Z,5.20
2023-02-22T02:58:42.599Z,4.90
2023-02-22T03:01:11.824Z,4.90
2023-02-22T03:04:05.987Z,8.00
2023-02-22T03:06:44.603Z,6.70
2023-02-22T03:09:29.985Z,5.30
2023-02-22T03:12:20.279Z,5.70
2023-02-22T03:15:03.098Z,6.90
2023-02-22T03:17:44.581Z,6.20
2023-02-22T03:20:16.852Z,5.80
2023-02-22T03:22:53.529Z,6.00
2023-02-22T03:25:34.639Z,7.00
2023-02-22T03:28:07.515Z,6.50
2023-02-22T03:30:42.833Z,5.60
2023-02-22T03:33:15.721Z,4.70
2023-02-22T03:35:50.147Z,7.10
2023-02-22T03:38:19.460Z,6.50
2023-02-22T03:40:51.237Z,7.20
2023-02-22T03:43:26.126Z,7.00
2023-02-22T03:45:56.255Z,6.50
2023-02-22T03:48:38.465Z,6.80
2023-02-22T03:51:08.089Z,6.80
2023-02-22T03:53:37.577Z,6.40
2023-02-22T03:56:08.715Z,8.80
2023-02-22T03:58:39.554Z,6.80
2023-02-22T04:01:08.651Z,8.20
2023-02-22T04:03:37.848Z,8.50
2023-02-22T04:06:07.148Z,7.30
2023-02-22T04:08:36.050Z,6.30
2023-02-22T04:11:04.729Z,8.20
2023-02-22T04:13:33.212Z,6.80
2023-02-22T04:16:01.654Z,6.20
2023-02-22T04:18:30.789Z,5.60
2023-02-22T04:21:04.388Z,6.90
2023-02-22T04:23:40.360Z,8.00
2023-02-22T04:26:09.941Z,8.60
2023-02-22T04:28:38.844Z,7.60
2023-02-22T04:31:26.967Z,7.80
2023-02-22T04:33:57.516Z,7.80
2023-02-22T04:36:31.970Z,8.40
2023-02-22T04:39:01.339Z,7.30
2023-02-22T04:41:31.971Z,6.70
2023-02-22T04:44:00.350Z,8.70
2023-02-22T04:46:31.686Z,8.20
2023-02-22T04:49:00.697Z,7.50
2023-02-22T04:51:32.860Z,8.30
2023-02-22T04:54:04.220Z,8.00
2023-02-22T04:56:35.666Z,9.90
2023-02-22T04:59:06.190Z,7.10
2023-02-22T05:01:37.544Z,8.10
2023-02-22T05:04:07.416Z,8.10
2023-02-22T05:06:35.732Z,8.70
2023-02-22T05:09:04.525Z,8.90
2023-02-22T05:11:35.561Z,8.00
2023-02-22T05:14:04.041Z,7.70
2023-02-22T05:16:34.476Z,7.00
2023-02-22T05:19:04.387Z,8.10
2023-02-22T05:21:33.578Z,9.60
2023-02-22T05:24:02.370Z,9.00
2023-02-22T05:26:31.054Z,8.20
2023-02-22T05:29:00.566Z,8.90
2023-02-22T05:31:29.733Z,8.50
2023-02-22T05:33:58.752Z,5.30
2023-02-22T05:36:28.374Z,7.30
2023-02-22T05:38:56.739Z,7.20
2023-02-22T05:41:25.343Z,8.50
2023-02-22T05:43:53.704Z,6.90
2023-02-22T05:46:22.114Z,7.80
2023-02-22T05:48:50.871Z,9.20
2023-02-22T05:51:19.967Z,6.70
2023-02-22T05:53:48.448Z,7.00
2023-02-22T05:56:24.407Z,7.30
2023-02-22T05:58:52.888Z,7.70
2023-02-22T06:01:21.988Z,5.80
2023-02-22T06:03:50.911Z,7.70
2023-02-22T06:06:22.256Z,7.90
2023-02-22T06:08:51.356Z,6.30
2023-02-22T06:11:20.113Z,7.40
2023-02-22T06:16:28.453Z,9.90
2023-02-22T06:18:56.924Z,9.90
2023-02-22T06:21:25.316Z,7.70
2023-02-22T06:23:53.780Z,7.10
2023-02-22T06:26:23.290Z,8.10
2023-02-22T06:28:51.868Z,7.20
2023-02-22T06:31:21.515Z,7.90
2023-02-22T06:33:49.973Z,7.80
2023-02-22T06:36:19.157Z,7.30
2023-02-22T06:38:47.845Z,6.90
2023-02-22T06:41:16.549Z,7.50
2023-02-22T06:43:47.733Z,8.80
2023-02-22T06:46:16.259Z,9.10
2023-02-22T06:48:44.861Z,7.40
2023-02-22T06:51:13.426Z,8.60
2023-02-22T06:53:45.935Z,8.40
2023-02-22T06:56:14.484Z,7.60
2023-02-22T06:58:43.486Z,8.10
2023-02-22T07:01:12.226Z,9.20
2023-02-22T07:03:41.119Z,6.00
2023-02-22T07:06:11.085Z,8.70
2023-02-22T07:08:40.077Z,6.70
2023-02-22T07:11:09.068Z,8.00
2023-02-22T07:13:38.061Z,9.10
2023-02-22T07:16:09.535Z,9.10
2023-02-22T07:18:39.020Z,8.00
2023-02-22T07:21:08.042Z,6.40
2023-02-22T07:23:37.066Z,7.80
2023-02-22T07:26:08.464Z,8.40
2023-02-22T07:28:37.250Z,7.60
2023-02-22T07:31:05.734Z,9.70
2023-02-22T07:33:34.523Z,8.50
2023-02-22T07:36:02.904Z,7.60
2023-02-22T07:38:32.510Z,6.40
2023-02-22T07:41:02.014Z,8.50
2023-02-22T07:43:31.930Z,7.40
2023-02-22T07:46:03.137Z,8.30
2023-02-22T07:48:32.576Z,7.60
2023-02-22T07:51:01.070Z,9.40
2023-02-22T07:53:31.287Z,8.60
2023-02-22T07:56:01.590Z,8.20
2023-02-22T07:58:30.815Z,8.10
2023-02-22T08:01:02.542Z,7.40
2023-02-22T08:03:34.493Z,7.50
2023-02-22T08:06:03.434Z,8.30
2023-02-22T08:08:32.759Z,8.50
2023-02-22T08:11:01.417Z,8.60
2023-02-22T08:13:30.517Z,9.80
2023-02-22T08:16:00.741Z,8.50
2023-02-22T08:18:30.143Z,9.60
2023-02-22T08:21:00.572Z,7.00
2023-02-22T08:23:29.792Z,10.30
2023-02-22T08:25:58.150Z,8.40
2023-02-22T08:28:26.628Z,8.60
2023-02-22T08:30:55.227Z,7.80
2023-02-22T08:33:26.069Z,8.50
2023-02-22T08:35:55.251Z,9.40
2023-02-22T08:38:27.933Z,10.10
2023-02-22T08:40:56.832Z,8.10
2023-02-22T08:43:25.302Z,9.00
2023-02-22T08:45:56.905Z,9.10
2023-02-22T08:48:25.761Z,9.90
2023-02-22T08:50:55.662Z,9.70
2023-02-22T08:53:25.090Z,9.30
2023-02-22T08:55:53.552Z,9.20
2023-02-22T08:58:24.404Z,9.70
2023-02-22T09:00:54.213Z,7.20
2023-02-22T09:03:23.810Z,7.80
2023-02-22T09:05:52.622Z,10.60
2023-02-22T09:08:23.029Z,8.80
2023-02-22T09:10:51.410Z,12.10
2023-02-22T09:13:21.324Z,10.30
2023-02-22T09:15:50.740Z,9.70
2023-02-22T09:18:19.303Z,9.70
2023-02-22T09:20:52.394Z,9.70
2023-02-22T09:23:24.356Z,10.00
2023-02-22T09:26:52.231Z,10.90
2023-02-22T09:29:25.089Z,9.60
2023-02-22T09:31:54.945Z,9.20
2023-02-22T09:36:59.060Z,9.30
2023-02-22T09:39:27.585Z,9.50
2023-02-22T09:42:01.964Z,13.00
2023-02-22T09:44:54.106Z,10.40
2023-02-22T09:47:32.665Z,9.90
2023-02-22T09:50:16.261Z,10.70
2023-02-22T09:52:57.072Z,11.90
2023-02-22T09:55:57.770Z,12.00
2023-02-22T09:58:33.763Z,11.40
2023-02-22T10:01:29.813Z,9.60
2023-02-22T10:04:24.970Z,10.70
2023-02-22T10:07:06.354Z,13.10
2023-02-22T10:09:38.008Z,11.40
2023-02-22T10:12:19.393Z,9.60
2023-02-22T10:15:16.445Z,9.50
2023-02-22T10:18:00.488Z,15.20
2023-02-22T10:20:55.490Z,12.40
2023-02-22T10:23:35.235Z,6.70
2023-02-22T10:26:33.623Z,8.10
2023-02-22T10:29:37.026Z,7.50
2023-02-22T10:32:06.426Z,6.50
2023-02-22T10:34:42.907Z,9.20
2023-02-22T10:37:17.460Z,9.40
2023-02-22T10:39:47.091Z,8.70
2023-02-22T10:42:16.030Z,10.90
2023-02-22T10:44:45.225Z,6.20
2023-02-22T10:47:20.046Z,10.90
2023-02-22T10:49:56.933Z,7.20
2023-02-22T10:52:32.792Z,6.50
2023-02-22T10:55:14.720Z,7.70
2023-02-22T10:57:49.841Z,7.80
2023-02-22T11:00:26.596Z,7.50
2023-02-22T11:03:02.559Z,8.50
2023-02-22T11:05:37.383Z,9.30
2023-02-22T11:08:21.329Z,7.80
2023-02-22T11:10:51.725Z,7.10
2023-02-22T11:13:31.815Z,8.50
2023-02-22T11:16:18.363Z,7.70
2023-02-22T11:18:47.845Z,9.20
2023-02-22T11:21:22.841Z,9.00
2023-02-22T11:24:01.989Z,8.00
2023-02-22T11:26:44.055Z,7.70
2023-02-22T11:29:33.465Z,6.90
2023-02-22T11:32:14.674Z,7.60
2023-02-22T11:34:52.820Z,7.30
2023-02-22T11:37:35.050Z,8.70
2023-02-22T11:40:12.437Z,7.50
2023-02-22T11:42:43.995Z,7.30
2023-02-22T11:45:13.195Z,6.70
2023-02-22T11:47:55.702Z,6.80
2023-02-22T11:50:34.120Z,7.50
2023-02-22T11:53:22.374Z,6.70
2023-02-22T11:56:37.627Z,6.40
2023-02-22T11:59:21.791Z,7.90
2023-02-22T12:01:54.677Z,9.70
2023-02-22T12:04:30.112Z,6.00
2023-02-22T12:07:10.693Z,6.60
2023-02-22T12:10:20.950Z,8.50
2023-02-22T12:13:09.922Z,8.00
2023-02-22T12:15:50.925Z,7.80
2023-02-22T12:18:48.142Z,7.70
2023-02-22T12:21:17.995Z,7.70
2023-02-22T12:24:09.072Z,8.70
2023-02-22T12:26:41.545Z,7.70
2023-02-22T12:29:41.779Z,8.50
2023-02-22T12:34:50.309Z,7.10
2023-02-22T12:37:24.633Z,8.70
2023-02-22T12:40:27.521Z,8.30
2023-02-22T12:43:17.509Z,8.40
2023-02-22T12:46:01.594Z,8.30
2023-02-22T12:48:35.881Z,9.90
2023-02-22T12:51:10.000Z,9.10
2023-02-22T12:53:40.828Z,7.80
2023-02-22T12:56:16.787Z,9.20
2023-02-22T12:58:49.872Z,7.90
2023-02-22T13:01:20.510Z,8.90
2023-02-22T13:03:49.497Z,8.50
2023-02-22T13:06:40.316Z,8.00
2023-02-22T13:09:39.709Z,10.10
2023-02-22T13:12:16.080Z,8.10
2023-02-22T13:14:51.420Z,8.40
2023-02-22T13:17:32.601Z,7.80
2023-02-22T13:20:07.330Z,7.80
2023-02-22T13:22:38.981Z,8.20
2023-02-22T13:25:16.387Z,8.30
2023-02-22T13:27:55.709Z,8.80
2023-02-22T13:31:03.267Z,8.50
2023-02-22T13:34:13.275Z,8.40
2023-02-22T13:36:42.155Z,8.90
2023-02-22T13:39:46.279Z,7.70
2023-02-22T13:42:44.241Z,7.80
2023-02-22T13:45:20.095Z,7.90
2023-02-22T13:47:58.101Z,7.50
2023-02-22T13:50:48.292Z,8.20
2023-02-22T13:53:28.659Z,10.60
2023-02-22T13:56:00.577Z,8.50
2023-02-22T13:58:29.307Z,8.60
2023-02-22T14:00:59.267Z,9.30
2023-02-22T14:06:06.527Z,9.00
2023-02-22T14:08:34.936Z,7.60
2023-02-22T14:11:12.911Z,7.90
2023-02-22T14:14:01.167Z,9.10
2023-02-22T14:16:31.739Z,8.60
2023-02-22T14:19:06.789Z,7.30
2023-02-22T14:21:36.132Z,7.70
2023-02-22T14:24:09.121Z,8.70
2023-02-22T14:26:38.726Z,7.50
2023-02-22T14:29:10.593Z,7.20
2023-02-22T14:31:43.596Z,9.50
2023-02-22T14:34:22.914Z,7.50
2023-02-22T14:36:55.917Z,6.90
2023-02-22T14:39:44.454Z,8.30
2023-02-22T14:42:41.641Z,8.20
2023-02-22T14:45:09.909Z,8.90
2023-02-22T14:47:50.253Z,8.70
2023-02-22T14:50:30.403Z,7.50
2023-02-22T14:53:04.720Z,8.30
2023-02-22T14:55:37.918Z,9.30
2023-02-22T14:58:18.992Z,9.70
2023-02-22T15:00:49.415Z,7.60
2023-02-22T15:05:53.750Z,9.60
2023-02-22T15:08:28.478Z,8.70
2023-02-22T15:10:56.891Z,11.00
2023-02-22T15:13:27.493Z,19.00
2023-02-22T15:16:02.153Z,11.90
2023-02-22T15:18:52.310Z,11.00
2023-02-22T15:21:23.771Z,8.30
2023-02-22T15:24:00.555Z,9.90
2023-02-22T15:26:44.264Z,9.50
2023-02-22T15:29:23.350Z,11.30
2023-02-22T15:31:53.157Z,14.40
2023-02-22T15:34:27.181Z,13.70
2023-02-22T15:36:57.875Z,12.30
2023-02-22T15:39:34.515Z,11.00
2023-02-22T15:42:19.518Z,10.50
2023-02-22T15:44:49.613Z,9.40
2023-02-22T15:47:22.571Z,7.60
2023-02-22T15:50:21.635Z,9.40
2023-02-22T15:52:53.597Z,8.50
2023-02-22T15:55:25.655Z,9.10
2023-02-22T15:57:55.879Z,10.70
2023-02-22T16:00:38.558Z,9.50
2023-02-22T16:03:09.553Z,11.30
2023-02-22T16:05:50.817Z,9.90
2023-02-22T16:08:23.988Z,11.80
2023-02-22T16:11:03.656Z,11.20
2023-02-22T16:13:34.199Z,11.00
2023-02-22T16:16:24.944Z,9.60
2023-02-22T16:18:53.780Z,8.50
2023-02-22T16:21:22.568Z,10.40
2023-02-22T16:23:55.990Z,8.20
2023-02-22T16:26:31.827Z,9.60
2023-02-22T16:29:02.504Z,8.20
2023-02-22T16:34:03.516Z,7.80
2023-02-22T16:36:42.245Z,8.30
2023-02-22T16:39:14.816Z,10.60
2023-02-22T16:41:43.953Z,8.90
2023-02-22T16:44:13.280Z,7.00
2023-02-22T16:46:45.481Z,8.30
2023-02-22T16:49:14.996Z,8.50
2023-02-22T16:52:01.915Z,7.40
2023-02-22T16:54:34.578Z,7.80
2023-02-22T16:57:04.619Z,8.10
2023-02-22T17:02:01.982Z,9.40
2023-02-22T17:04:31.594Z,9.20
2023-02-22T17:07:00.379Z,11.30
2023-02-22T17:09:28.856Z,13.40
2023-02-22T17:11:58.255Z,11.80
2023-02-22T17:14:30.934Z,12.10
2023-02-22T17:17:00.552Z,10.10
2023-02-22T17:19:29.436Z,9.30
2023-02-22T17:21:58.326Z,9.60
2023-02-22T17:24:29.550Z,11.30
2023-02-22T17:26:59.593Z,10.70
2023-02-22T17:29:29.917Z,8.70
2023-02-22T17:31:59.519Z,6.80
2023-02-22T17:34:28.420Z,9.30
2023-02-22T17:36:56.872Z,10.70
2023-02-22T17:39:27.650Z,8.80
2023-02-22T17:41:57.980Z,9.00
2023-02-22T17:44:26.562Z,7.00
2023-02-22T17:46:56.985Z,6.40
2023-02-22T17:49:25.462Z,6.70
2023-02-22T17:51:55.897Z,5.70
2023-02-22T17:54:26.017Z,4.40
2023-02-22T17:56:54.708Z,4.70
2023-02-22T17:59:23.179Z,5.60
2023-02-22T18:01:53.092Z,6.20
2023-02-22T18:04:21.987Z,6.30
2023-02-22T18:06:52.018Z,4.10
2023-02-22T18:09:23.597Z,4.40
2023-02-22T18:14:20.948Z,5.30
2023-02-22T18:16:49.626Z,5.90
2023-02-22T18:19:20.997Z,6.90
2023-02-22T18:21:52.827Z,7.00
2023-02-22T18:24:21.621Z,4.90
2023-02-22T18:26:50.697Z,7.30
2023-02-22T18:29:19.402Z,7.40
2023-02-22T18:31:47.895Z,9.50
2023-02-22T18:36:46.806Z,7.30
2023-02-22T18:39:15.278Z,11.40
2023-02-22T18:41:48.169Z,12.90
2023-02-22T18:44:16.749Z,14.40
2023-02-22T18:46:45.241Z,13.90
2023-02-22T18:49:14.749Z,12.80
2023-02-22T18:51:45.066Z,13.60
2023-02-22T18:54:13.548Z,11.00
2023-02-22T18:56:42.373Z,11.90
2023-02-22T18:59:12.391Z,11.70
2023-02-22T19:01:49.392Z,13.10
2023-02-22T19:04:19.061Z,14.00
2023-02-22T19:06:50.097Z,15.10
2023-02-22T19:09:18.590Z,13.40
2023-02-22T19:11:48.599Z,10.70
2023-02-22T19:14:18.358Z,10.60
2023-02-22T19:16:47.513Z,11.20
2023-02-22T19:19:21.022Z,11.40
2023-02-22T19:21:50.211Z,11.40
2023-02-22T19:24:19.211Z,11.30
2023-02-22T19:26:51.899Z,12.70
2023-02-22T19:29:25.590Z,10.40
2023-02-22T19:31:54.897Z,9.80
2023-02-22T19:34:25.019Z,11.40
2023-02-22T19:41:56.033Z,11.00
2023-02-22T19:44:24.947Z,12.00
2023-02-22T19:46:57.159Z,11.40
2023-02-22T19:49:28.202Z,11.60
2023-02-22T19:51:58.349Z,10.20
2023-02-22T19:54:27.827Z,9.80
2023-02-22T19:56:58.360Z,10.70
2023-02-22T19:59:26.830Z,10.80
2023-02-22T20:01:55.788Z,11.80
2023-02-22T20:04:30.729Z,13.10
2023-02-22T20:07:00.382Z,12.70
2023-02-22T20:09:49.962Z,12.90
2023-02-22T20:12:18.338Z,14.20
2023-02-22T20:14:47.031Z,11.80
2023-02-22T20:17:15.611Z,13.40
2023-02-22T20:19:44.708Z,13.60
2023-02-22T20:22:13.095Z,13.90
2023-02-22T20:24:42.292Z,14.60
2023-02-22T20:27:10.774Z,15.50
2023-02-22T20:29:39.771Z,15.20
2023-02-22T20:32:10.611Z,14.60
2023-02-22T20:34:38.986Z,12.30
2023-02-22T20:37:07.677Z,16.70
2023-02-22T20:39:36.272Z,17.60
2023-02-22T20:42:07.122Z,15.90
2023-02-22T20:44:35.584Z,15.80
2023-02-22T20:47:05.396Z,15.30
2023-02-22T20:52:05.027Z,13.70
2023-02-22T20:54:38.323Z,14.50
2023-02-22T20:57:08.344Z,13.80
2023-02-22T20:59:37.439Z,13.20
2023-02-22T21:02:06.751Z,14.00
2023-02-22T21:04:35.676Z,10.80
2023-02-22T21:07:04.445Z,11.00
2023-02-22T21:09:34.996Z,10.80
2023-02-22T21:12:13.508Z,12.60
2023-02-22T21:14:44.520Z,9.70
2023-02-22T21:17:12.899Z,11.10
2023-02-22T21:19:42.407Z,10.90
2023-02-22T21:22:12.433Z,9.20
2023-02-22T21:24:42.660Z,9.00
2023-02-22T21:27:12.571Z,9.90
2023-02-22T21:29:40.949Z,9.40
2023-02-22T21:32:10.033Z,11.80
2023-02-22T21:34:39.118Z,10.30
2023-02-22T21:37:08.458Z,8.10
2023-02-22T21:39:39.497Z,10.00
2023-02-22T21:44:30.521Z,14.80
2023-02-22T21:46:59.330Z,16.90
2023-02-22T21:49:31.788Z,16.70
2023-02-22T21:52:00.485Z,16.10
2023-02-22T21:54:29.165Z,19.10
2023-02-22T21:56:57.644Z,15.50
2023-02-22T21:59:25.930Z,15.40
2023-02-22T22:01:57.585Z,15.40
2023-02-22T22:04:28.740Z,14.90
2023-02-22T22:06:58.765Z,14.60
2023-02-22T22:12:03.090Z,13.80
2023-02-22T22:14:34.447Z,13.90
2023-02-22T22:17:09.885Z,15.10
2023-02-22T22:19:39.609Z,16.50
2023-02-22T22:22:08.117Z,15.70
2023-02-22T22:27:10.063Z,15.60
2023-02-22T22:29:39.167Z,13.20
2023-02-22T22:32:09.330Z,14.60
2023-02-22T22:34:38.141Z,16.00
2023-02-22T22:37:06.473Z,16.30
2023-02-22T22:39:34.842Z,16.20
2023-02-22T22:42:03.729Z,14.60
2023-02-22T22:44:41.229Z,16.30
2023-02-22T22:47:12.686Z,14.60
2023-02-22T22:49:42.953Z,16.40
2023-02-22T22:52:14.115Z,19.00
2023-02-22T22:54:43.675Z,18.20
2023-02-22T22:57:12.469Z,18.40
2023-02-22T22:59:40.844Z,19.50
2023-02-22T23:02:11.692Z,17.10
2023-02-22T23:04:40.360Z,16.50
2023-02-22T23:07:11.399Z,15.40
2023-02-22T23:09:41.829Z,16.60
2023-02-22T23:12:18.002Z,18.60
2023-02-22T23:14:52.313Z,18.40
2023-02-22T23:17:41.378Z,17.00
2023-02-22T23:22:47.479Z,20.00
2023-02-22T23:25:20.055Z,13.10
2023-02-22T23:27:49.327Z,20.60
2023-02-22T23:30:20.693Z,16.10
2023-02-22T23:32:50.305Z,16.70
2023-02-22T23:35:19.416Z,18.60
2023-02-22T23:37:53.635Z,13.60
2023-02-22T23:40:22.105Z,14.00
2023-02-22T23:42:51.408Z,14.30
2023-02-22T23:45:22.961Z,16.60
2023-02-22T23:47:55.115Z,12.10
2023-02-22T23:50:27.203Z,13.20
2023-02-22T23:52:59.070Z,16.50
2023-02-22T23:55:31.747Z,12.00
2023-02-22T23:58:00.131Z,15.60
